Terminal Aerodrome Forecast
Issued by NWS Buffalo, NY

Home | Current Version | Previous Version | Text Only | Print | Product List | Glossary On
Versions: 1 2 3 4 5 6 7 8 9 10 11 12 13 14 15 16 17 18 19 20 21 22 23 24 25
000
FTUS41 KBUF 051503 AAA
TAFBUF
TAF AMD
KBUF 051503Z 0515/0612 23007KT P6SM SKC
     FM051800 24007KT P6SM FEW250
     FM052300 21006KT P6SM SKC
     FM060200 17004KT P6SM FEW250=

USA.gov is the U.S. government's official web portal to all federal, state and local government web resources and services.